createdAt,value
2022-12-22T00:02:23.184Z,100452.00
2022-12-22T00:05:08.544Z,100457.19
2022-12-22T00:07:53.511Z,100459.78
2022-12-22T00:10:38.875Z,100457.19
2022-12-22T00:13:24.304Z,100453.72
2022-12-22T00:16:09.764Z,100452.88
2022-12-22T00:18:54.777Z,100437.28
2022-12-22T00:21:39.649Z,100436.44
2022-12-22T00:24:24.739Z,100435.56
2022-12-22T00:27:09.772Z,100426.06
2022-12-22T00:30:00.239Z,100432.13
2022-12-22T00:32:56.528Z,100427.78
2022-12-22T00:35:43.874Z,100414.00
2022-12-22T00:38:38.391Z,100407.94
2022-12-22T00:41:24.178Z,100408.81
2022-12-22T00:44:09.746Z,100404.50
2022-12-22T00:46:58.620Z,100400.13
2022-12-22T00:49:46.324Z,100399.25
2022-12-22T00:52:31.658Z,100401.88
2022-12-22T00:55:17.101Z,100392.38
2022-12-22T00:58:02.313Z,100394.06
2022-12-22T01:00:47.884Z,100393.19
2022-12-22T01:03:33.235Z,100381.13
2022-12-22T01:06:20.928Z,100385.44
2022-12-22T01:09:06.898Z,100375.94
2022-12-22T01:11:52.669Z,100372.44
2022-12-22T01:14:37.423Z,100369.84
2022-12-22T01:17:22.171Z,100363.84
2022-12-22T01:20:07.151Z,100372.47
2022-12-22T01:22:52.481Z,100363.84
2022-12-22T01:25:38.729Z,100362.06
2022-12-22T01:28:24.207Z,100357.78
2022-12-22T01:31:09.499Z,100363.81
2022-12-22T01:33:54.474Z,100359.50
2022-12-22T01:36:39.406Z,100364.66
2022-12-22T01:39:24.371Z,100367.28
2022-12-22T01:42:09.220Z,100371.56
2022-12-22T01:44:54.017Z,100358.59
2022-12-22T01:47:48.212Z,100358.59
2022-12-22T01:50:35.646Z,100356.88
2022-12-22T01:53:27.274Z,100357.72
2022-12-22T01:56:12.709Z,100352.53
2022-12-22T01:59:03.627Z,100351.66
2022-12-22T02:01:49.760Z,100341.25
2022-12-22T02:04:37.466Z,100336.97
2022-12-22T02:07:32.860Z,100337.78
2022-12-22T02:10:37.115Z,100337.75
2022-12-22T02:14:16.516Z,100329.13
2022-12-22T02:17:20.183Z,100330.88
2022-12-22T02:20:26.534Z,100334.34
2022-12-22T02:23:14.465Z,100332.59
2022-12-22T02:26:09.352Z,100329.97
2022-12-22T02:28:54.887Z,100330.84
2022-12-22T02:31:39.808Z,100321.31
2022-12-22T02:34:32.016Z,100319.59
2022-12-22T02:37:27.016Z,100321.28
2022-12-22T02:40:47.868Z,100316.97
2022-12-22T02:44:11.112Z,100305.72
2022-12-22T02:47:10.652Z,100310.09
2022-12-22T02:50:34.839Z,100306.63
2022-12-22T02:53:21.956Z,100301.44
2022-12-22T02:56:07.222Z,100300.59
2022-12-22T02:58:53.065Z,100294.56
2022-12-22T03:01:38.577Z,100293.72
2022-12-22T03:04:23.527Z,100289.38
2022-12-22T03:07:08.368Z,100290.25
2022-12-22T03:09:53.099Z,100279.81
2022-12-22T03:12:37.968Z,100278.09
2022-12-22T03:15:23.238Z,100278.09
2022-12-22T03:18:08.063Z,100264.28
2022-12-22T03:20:53.112Z,100265.19
2022-12-22T03:23:37.892Z,100263.41
2022-12-22T03:26:05.721Z,100266.91
2022-12-22T03:28:33.220Z,100263.41
2022-12-22T03:31:04.740Z,100271.16
2022-12-22T03:33:32.896Z,100257.31
2022-12-22T03:36:01.576Z,100264.22
2022-12-22T03:38:29.919Z,100256.41
2022-12-22T03:40:57.739Z,100262.44
2022-12-22T03:43:42.779Z,100260.72
2022-12-22T03:46:31.664Z,100260.69
2022-12-22T03:49:13.132Z,100259.78
2022-12-22T03:51:45.028Z,100258.06
2022-12-22T03:54:15.239Z,100243.34
2022-12-22T03:56:43.707Z,100236.44
2022-12-22T03:59:12.106Z,100241.66
2022-12-22T04:01:43.374Z,100241.66
2022-12-22T04:04:11.930Z,100250.28
2022-12-22T04:06:39.501Z,100252.84
2022-12-22T04:09:07.664Z,100258.91
2022-12-22T04:11:53.151Z,100253.78
2022-12-22T04:14:21.626Z,100253.75
2022-12-22T04:16:49.476Z,100260.63
2022-12-22T04:19:17.649Z,100256.31
2022-12-22T04:21:45.535Z,100264.09
2022-12-22T04:24:13.550Z,100261.47
2022-12-22T04:26:41.314Z,100262.31
2022-12-22T04:29:08.907Z,100263.19
2022-12-22T04:31:36.557Z,100263.22
2022-12-22T04:34:04.112Z,100270.16
2022-12-22T04:36:31.626Z,100270.16
2022-12-22T04:38:59.080Z,100280.56
2022-12-22T04:41:27.593Z,100279.66
2022-12-22T04:43:55.111Z,100278.75
2022-12-22T04:46:22.703Z,100279.63
2022-12-22T04:48:53.258Z,100279.59
2022-12-22T04:51:25.232Z,100280.44
2022-12-22T04:53:52.699Z,100277.94
2022-12-22T04:56:20.319Z,100285.66
2022-12-22T04:58:47.875Z,100282.22
2022-12-22T05:01:17.735Z,100277.06
2022-12-22T05:03:45.821Z,100270.16
2022-12-22T05:06:13.720Z,100264.97
2022-12-22T05:08:41.291Z,100263.22
2022-12-22T05:11:09.284Z,100264.97
2022-12-22T05:13:36.869Z,100264.09
2022-12-22T05:16:13.923Z,100277.06
2022-12-22T05:18:43.025Z,100281.38
2022-12-22T05:21:16.331Z,100289.16
2022-12-22T05:23:44.471Z,100290.91
2022-12-22T05:26:14.414Z,100287.53
2022-12-22T05:28:43.500Z,100294.44
2022-12-22T05:31:18.222Z,100297.91
2022-12-22T05:33:46.066Z,100302.25
2022-12-22T05:36:13.724Z,100304.03
2022-12-22T05:38:41.330Z,100317.00
2022-12-22T05:41:09.099Z,100313.50
2022-12-22T05:43:36.682Z,100309.31
2022-12-22T05:46:09.800Z,100318.88
2022-12-22T05:48:39.382Z,100330.97
2022-12-22T05:51:09.142Z,100318.88
2022-12-22T05:53:37.722Z,100329.19
2022-12-22T05:56:05.577Z,100327.47
2022-12-22T05:58:33.926Z,100325.81
2022-12-22T06:01:02.191Z,100324.94
2022-12-22T06:03:31.039Z,100323.22
2022-12-22T06:05:59.829Z,100320.66
2022-12-22T06:08:27.920Z,100321.53
2022-12-22T06:10:56.936Z,100325.00
2022-12-22T06:13:24.635Z,100318.97
2022-12-22T06:15:52.274Z,100331.09
2022-12-22T06:18:19.811Z,100327.69
2022-12-22T06:20:48.039Z,100321.69
2022-12-22T06:23:15.532Z,100329.47
2022-12-22T06:25:43.102Z,100335.47
2022-12-22T06:28:10.612Z,100343.31
2022-12-22T06:30:38.201Z,100339.84
2022-12-22T06:33:05.850Z,100355.44
2022-12-22T06:35:33.334Z,100348.53
2022-12-22T06:38:00.856Z,100364.09
2022-12-22T06:40:28.332Z,100364.09
2022-12-22T06:43:10.640Z,100371.88
2022-12-22T06:45:39.613Z,100361.50
2022-12-22T06:48:08.504Z,100358.91
2022-12-22T06:50:36.111Z,100362.38
2022-12-22T06:53:04.394Z,100375.38
2022-12-22T06:55:31.966Z,100380.56
2022-12-22T06:57:59.902Z,100382.28
2022-12-22T07:00:27.488Z,100398.69
2022-12-22T07:02:55.094Z,100402.16
2022-12-22T07:05:24.576Z,100402.16
2022-12-22T07:07:52.451Z,100410.81
2022-12-22T07:10:40.377Z,100426.34
2022-12-22T07:13:19.382Z,100427.22
2022-12-22T07:15:53.821Z,100423.75
2022-12-22T07:18:27.255Z,100426.34
2022-12-22T07:20:55.122Z,100426.34
2022-12-22T07:23:22.702Z,100441.03
2022-12-22T07:25:50.238Z,100433.25
2022-12-22T07:28:20.918Z,100436.72
2022-12-22T07:30:52.828Z,100447.09
2022-12-22T07:33:20.847Z,100449.66
2022-12-22T07:35:48.466Z,100451.38
2022-12-22T07:38:15.982Z,100448.78
2022-12-22T07:40:45.734Z,100454.84
2022-12-22T07:43:14.542Z,100463.47
2022-12-22T07:45:42.099Z,100468.66
2022-12-22T07:48:24.383Z,100463.47
2022-12-22T07:50:51.957Z,100469.50
2022-12-22T07:53:19.490Z,100473.81
2022-12-22T07:55:47.075Z,100491.06
2022-12-22T07:58:14.614Z,100491.94
2022-12-22T08:00:42.227Z,100480.72
2022-12-22T08:03:10.537Z,100488.47
2022-12-22T08:05:39.176Z,100482.44
2022-12-22T08:08:06.881Z,100485.03
2022-12-22T08:10:34.436Z,100488.47
2022-12-22T08:13:01.988Z,100490.19
2022-12-22T08:15:29.605Z,100485.03
2022-12-22T08:17:57.739Z,100490.19
2022-12-22T08:20:26.027Z,100486.78
2022-12-22T08:22:53.550Z,100497.97
2022-12-22T08:25:21.160Z,100503.16
2022-12-22T08:27:53.132Z,100510.91
2022-12-22T08:30:20.873Z,100521.25
2022-12-22T08:32:50.778Z,100533.34
2022-12-22T08:35:18.815Z,100545.41
2022-12-22T08:37:48.916Z,100541.94
2022-12-22T08:40:29.654Z,100536.75
2022-12-22T08:43:01.912Z,100543.66
2022-12-22T08:45:29.735Z,100552.28
2022-12-22T08:47:57.323Z,100553.16
2022-12-22T08:50:25.001Z,100560.00
2022-12-22T08:52:52.542Z,100566.91
2022-12-22T08:55:20.073Z,100561.69
2022-12-22T08:57:56.009Z,100568.59
2022-12-22T09:00:24.036Z,100566.91
2022-12-22T09:02:51.782Z,100562.59
2022-12-22T09:05:20.419Z,100569.50
2022-12-22T09:07:48.513Z,100574.69
2022-12-22T09:10:16.862Z,100578.16
2022-12-22T09:12:44.380Z,100580.72
2022-12-22T09:15:12.108Z,100593.66
2022-12-22T09:17:39.678Z,100590.16
2022-12-22T09:20:08.173Z,100589.28
2022-12-22T09:22:35.749Z,100595.34
2022-12-22T09:25:03.223Z,100606.50
2022-12-22T09:27:31.582Z,100603.88
2022-12-22T09:29:59.111Z,100600.44
2022-12-22T09:32:26.867Z,100602.09
2022-12-22T09:34:54.391Z,100602.09
2022-12-22T09:37:22.032Z,100608.97
2022-12-22T09:39:49.716Z,100612.44
2022-12-22T09:42:21.020Z,100615.88
2022-12-22T09:44:52.135Z,100616.78
2022-12-22T09:47:27.216Z,100609.91
2022-12-22T09:49:57.901Z,100609.09
2022-12-22T09:52:34.655Z,100621.19
2022-12-22T09:55:14.063Z,100611.75
2022-12-22T09:57:41.643Z,100631.63
2022-12-22T10:00:16.142Z,100629.94
2022-12-22T10:03:08.353Z,100638.59
2022-12-22T10:05:46.132Z,100632.63
2022-12-22T10:08:29.572Z,100626.59
2022-12-22T10:10:57.500Z,100630.97
2022-12-22T10:13:25.049Z,100623.19
2022-12-22T10:15:53.215Z,100628.38
2022-12-22T10:18:26.860Z,100625.81
2022-12-22T10:21:04.317Z,100624.91
2022-12-22T10:23:34.370Z,100620.56
2022-12-22T10:29:13.627Z,100617.94
2022-12-22T10:32:17.433Z,100626.63
2022-12-22T10:35:00.968Z,100610.16
2022-12-22T10:37:34.463Z,100623.13
2022-12-22T10:40:18.704Z,100619.63
2022-12-22T10:42:49.207Z,100622.22
2022-12-22T10:45:19.404Z,100628.25
2022-12-22T10:47:53.694Z,100620.44
2022-12-22T10:50:23.116Z,100617.94
2022-12-22T10:52:56.827Z,100623.19
2022-12-22T10:55:28.511Z,100616.22
2022-12-22T10:58:11.244Z,100624.81
2022-12-22T11:00:41.202Z,100623.97
2022-12-22T11:03:20.596Z,100624.84
2022-12-22T11:05:51.687Z,100629.16
2022-12-22T11:08:21.012Z,100629.16
2022-12-22T11:11:02.269Z,100633.50
2022-12-22T11:13:53.119Z,100630.88
2022-12-22T11:16:32.650Z,100636.94
2022-12-22T11:19:25.796Z,100620.50
2022-12-22T11:22:11.769Z,100624.81
2022-12-22T11:24:58.957Z,100635.19
2022-12-22T11:27:45.547Z,100629.94
2022-12-22T11:30:21.163Z,100635.13
2022-12-22T11:32:57.708Z,100629.88
2022-12-22T11:35:49.686Z,100631.53
2022-12-22T11:38:22.910Z,100621.06
2022-12-22T11:41:05.344Z,100636.63
2022-12-22T11:43:53.793Z,100633.16
2022-12-22T11:46:32.402Z,100633.16
2022-12-22T11:49:29.737Z,100627.88
2022-12-22T11:52:16.838Z,100613.91
2022-12-22T11:55:08.914Z,100613.88
2022-12-22T11:58:13.955Z,100603.56
2022-12-22T12:01:14.861Z,100622.75
2022-12-22T12:03:57.063Z,100612.44
2022-12-22T12:06:32.408Z,100619.38
2022-12-22T12:09:24.572Z,100628.19
2022-12-22T12:12:05.524Z,100632.59
2022-12-22T12:14:39.665Z,100626.53
2022-12-22T12:17:25.894Z,100631.75
2022-12-22T12:20:12.717Z,100627.44
2022-12-22T12:22:53.165Z,100626.59
2022-12-22T12:25:26.101Z,100631.84
2022-12-22T12:28:10.670Z,100642.22
2022-12-22T12:30:51.423Z,100648.25
2022-12-22T12:33:37.381Z,100643.94
2022-12-22T12:36:13.376Z,100628.31
2022-12-22T12:39:08.014Z,100636.94
2022-12-22T12:41:45.386Z,100630.88
2022-12-22T12:44:16.289Z,100635.16
2022-12-22T12:46:53.195Z,100631.66
2022-12-22T12:49:36.031Z,100630.63
2022-12-22T12:52:13.114Z,100642.66
2022-12-22T12:54:44.492Z,100653.88
2022-12-22T12:57:29.097Z,100659.84
2022-12-22T12:59:59.366Z,100664.25
2022-12-22T13:02:30.045Z,100655.59
2022-12-22T13:05:11.756Z,100650.44
2022-12-22T13:08:07.357Z,100655.59
2022-12-22T13:10:41.509Z,100653.00
2022-12-22T13:13:14.622Z,100665.97
2022-12-22T13:15:45.129Z,100662.50
2022-12-22T13:18:12.798Z,100670.28
2022-12-22T13:20:40.582Z,100663.38
2022-12-22T13:23:15.970Z,100653.94
2022-12-22T13:25:51.382Z,100656.53
2022-12-22T13:28:22.176Z,100657.44
2022-12-22T13:30:53.008Z,100660.91
2022-12-22T13:33:25.256Z,100660.03
2022-12-22T13:35:58.528Z,100646.22
2022-12-22T13:38:38.519Z,100639.34
2022-12-22T13:41:27.736Z,100639.34
2022-12-22T13:44:04.232Z,100629.84
2022-12-22T13:46:35.573Z,100626.41
2022-12-22T13:49:04.954Z,100625.59
2022-12-22T13:51:36.922Z,100619.50
2022-12-22T13:54:19.873Z,100609.22
2022-12-22T13:56:50.801Z,100607.47
2022-12-22T13:59:31.741Z,100608.34
2022-12-22T14:02:12.091Z,100598.91
2022-12-22T14:04:41.987Z,100587.69
2022-12-22T14:07:18.400Z,100590.31
2022-12-22T14:09:51.057Z,100575.66
2022-12-22T14:12:22.249Z,100571.34
2022-12-22T14:14:52.442Z,100571.34
2022-12-22T14:17:33.393Z,100573.94
2022-12-22T14:20:03.879Z,100574.78
2022-12-22T14:22:37.353Z,100563.56
2022-12-22T14:25:16.264Z,100569.63
2022-12-22T14:27:52.810Z,100573.94
2022-12-22T14:30:23.305Z,100561.00
2022-12-22T14:32:55.928Z,100548.91
2022-12-22T14:35:23.722Z,100554.06
2022-12-22T14:38:07.724Z,100554.94
2022-12-22T14:40:41.316Z,100545.47
2022-12-22T14:43:26.065Z,100555.84
2022-12-22T14:46:03.557Z,100546.31
2022-12-22T14:48:38.835Z,100537.69
2022-12-22T14:51:07.311Z,100537.69
2022-12-22T14:54:03.032Z,100545.44
2022-12-22T14:56:30.827Z,100538.56
2022-12-22T14:59:22.838Z,100536.84
2022-12-22T15:02:21.162Z,100536.84
2022-12-22T15:04:48.944Z,100539.44
2022-12-22T15:08:03.410Z,100542.00
2022-12-22T15:10:17.250Z,100536.81
2022-12-22T15:12:45.798Z,100537.69
2022-12-22T15:15:19.899Z,100526.50
2022-12-22T15:17:50.684Z,100534.22
2022-12-22T15:20:22.493Z,100529.06
2022-12-22T15:22:50.611Z,100522.16
2022-12-22T15:25:23.847Z,100521.31
2022-12-22T15:27:52.174Z,100522.16
2022-12-22T15:30:28.637Z,100519.56
2022-12-22T15:32:57.547Z,100520.44
2022-12-22T15:35:35.966Z,100512.66
2022-12-22T15:38:03.498Z,100507.50
2022-12-22T15:40:31.012Z,100514.41
2022-12-22T15:42:58.517Z,100510.94
2022-12-22T15:45:26.232Z,100510.94
2022-12-22T15:47:55.576Z,100510.94
2022-12-22T15:50:35.179Z,100501.44
2022-12-22T15:53:09.134Z,100493.66
2022-12-22T15:55:42.908Z,100486.78
2022-12-22T15:58:12.999Z,100486.78
2022-12-22T16:00:40.718Z,100479.84
2022-12-22T16:03:08.383Z,100487.63
2022-12-22T16:05:36.311Z,100478.13
2022-12-22T16:08:05.332Z,100478.13
2022-12-22T16:10:35.639Z,100478.16
2022-12-22T16:13:04.166Z,100475.53
2022-12-22T16:15:35.085Z,100478.13
2022-12-22T16:18:03.464Z,100462.59
2022-12-22T16:20:37.590Z,100463.47
2022-12-22T16:23:08.141Z,100467.78
2022-12-22T16:25:38.591Z,100444.47
2022-12-22T16:28:07.511Z,100448.81
2022-12-22T16:30:35.585Z,100439.31
2022-12-22T16:33:03.161Z,100414.28
2022-12-22T16:35:32.917Z,100422.03
2022-12-22T16:38:01.260Z,100427.22
2022-12-22T16:40:29.882Z,100423.78
2022-12-22T16:45:54.369Z,100422.06
2022-12-22T16:48:30.872Z,100414.28
2022-12-22T16:50:58.470Z,100407.38
2022-12-22T16:53:26.003Z,100410.00
2022-12-22T16:55:53.525Z,100408.25
2022-12-22T16:58:21.337Z,100409.09
2022-12-22T17:00:49.389Z,100403.91
2022-12-22T17:03:23.304Z,100400.47
2022-12-22T17:05:58.648Z,100408.22
2022-12-22T17:08:32.618Z,100404.78
2022-12-22T17:11:10.197Z,100399.63
2022-12-22T17:13:38.943Z,100389.25
2022-12-22T17:16:06.805Z,100388.38
2022-12-22T17:18:35.656Z,100380.63
2022-12-22T17:21:04.343Z,100376.28
2022-12-22T17:23:39.716Z,100370.25
2022-12-22T17:26:10.033Z,100367.66
2022-12-22T17:28:38.453Z,100362.47
2022-12-22T17:31:06.427Z,100355.56
2022-12-22T17:33:34.336Z,100356.44
2022-12-22T17:36:02.363Z,100355.56
2022-12-22T17:38:30.114Z,100340.91
2022-12-22T17:40:57.920Z,100347.81
2022-12-22T17:43:25.441Z,100343.50
2022-12-22T17:45:53.980Z,100335.72
2022-12-22T17:48:21.547Z,100326.25
2022-12-22T17:50:50.274Z,100332.25
2022-12-22T17:53:21.292Z,100323.66
2022-12-22T17:56:07.721Z,100324.47
2022-12-22T17:58:36.160Z,100322.75
2022-12-22T18:01:03.770Z,100322.75
2022-12-22T18:03:31.310Z,100325.34
2022-12-22T18:06:00.485Z,100323.63
2022-12-22T18:08:28.113Z,100325.34
2022-12-22T18:10:56.168Z,100314.97
2022-12-22T18:13:26.364Z,100312.38
2022-12-22T18:15:55.767Z,100308.03
2022-12-22T18:18:23.438Z,100300.28
2022-12-22T18:21:06.691Z,100308.91
2022-12-22T18:23:37.206Z,100300.25
2022-12-22T18:26:09.692Z,100296.81
2022-12-22T18:28:37.639Z,100287.31
2022-12-22T18:31:05.288Z,100295.97
2022-12-22T18:33:32.872Z,100284.66
2022-12-22T18:36:00.978Z,100286.41
2022-12-22T18:38:31.685Z,100288.13
2022-12-22T18:40:59.386Z,100290.66
2022-12-22T18:43:26.920Z,100286.31
2022-12-22T18:45:54.435Z,100289.72
2022-12-22T18:48:21.985Z,100282.81
2022-12-22T18:50:49.572Z,100277.56
2022-12-22T18:53:28.383Z,100269.78
2022-12-22T18:55:56.779Z,100277.56
2022-12-22T18:58:25.081Z,100276.66
2022-12-22T19:00:54.984Z,100263.69
2022-12-22T19:03:26.498Z,100272.28
2022-12-22T19:05:54.181Z,100274.00
2022-12-22T19:08:27.420Z,100283.47
2022-12-22T19:11:01.435Z,100269.59
2022-12-22T19:13:39.566Z,100273.06
2022-12-22T19:16:08.362Z,100272.19
2022-12-22T19:18:35.945Z,100266.91
2022-12-22T19:21:03.523Z,100270.38
2022-12-22T19:23:31.394Z,100268.59
2022-12-22T19:26:08.865Z,100277.19
2022-12-22T19:28:43.469Z,100275.41
2022-12-22T19:31:23.048Z,100275.38
2022-12-22T19:33:51.005Z,100271.88
2022-12-22T19:36:25.680Z,100269.25
2022-12-22T19:39:02.518Z,100270.03
2022-12-22T19:41:42.519Z,100270.91
2022-12-22T19:44:25.899Z,100271.75
2022-12-22T19:46:55.257Z,100271.72
2022-12-22T19:49:26.969Z,100257.88
2022-12-22T19:51:56.757Z,100269.94
2022-12-22T19:54:24.865Z,100266.41
2022-12-22T19:56:55.727Z,100258.66
2022-12-22T19:59:38.652Z,100267.22
2022-12-22T20:02:25.122Z,100268.09
2022-12-22T20:04:53.720Z,100278.44
2022-12-22T20:07:23.215Z,100274.94
2022-12-22T20:09:51.202Z,100270.63
2022-12-22T20:12:42.413Z,100268.03
2022-12-22T20:15:18.794Z,100267.19
2022-12-22T20:17:47.981Z,100266.25
2022-12-22T20:20:22.491Z,100270.56
2022-12-22T20:22:56.906Z,100271.44
2022-12-22T20:25:28.165Z,100272.25
2022-12-22T20:27:57.357Z,100271.41
2022-12-22T20:30:29.217Z,100271.44
2022-12-22T20:32:57.607Z,100272.34
2022-12-22T20:35:26.108Z,100269.75
2022-12-22T20:37:53.976Z,100270.56
2022-12-22T20:40:26.543Z,100264.47
2022-12-22T20:42:54.698Z,100260.13
2022-12-22T20:45:22.877Z,100260.09
2022-12-22T20:47:51.503Z,100258.34
2022-12-22T20:50:28.156Z,100258.41
2022-12-22T20:52:57.744Z,100270.50
2022-12-22T20:55:28.170Z,100270.50
2022-12-22T20:57:56.345Z,100283.63
2022-12-22T21:00:29.851Z,100285.38
2022-12-22T21:02:57.920Z,100276.69
2022-12-22T21:05:25.988Z,100276.66
2022-12-22T21:07:53.858Z,100288.81
2022-12-22T21:10:26.527Z,100276.75
2022-12-22T21:12:54.428Z,100277.56
2022-12-22T21:15:28.223Z,100281.94
2022-12-22T21:17:58.822Z,100268.03
2022-12-22T21:20:29.791Z,100274.06
2022-12-22T21:22:57.861Z,100281.81
2022-12-22T21:25:26.345Z,100286.09
2022-12-22T21:27:54.412Z,100273.13
2022-12-22T21:30:25.972Z,100284.31
2022-12-22T21:32:54.140Z,100295.59
2022-12-22T21:35:29.175Z,100286.09
2022-12-22T21:38:00.138Z,100278.31
2022-12-22T21:40:30.572Z,100280.03
2022-12-22T21:42:59.025Z,100282.59
2022-12-22T21:45:30.888Z,100274.84
2022-12-22T21:48:01.152Z,100271.41
2022-12-22T21:50:33.613Z,100285.22
2022-12-22T21:53:02.167Z,100280.03
2022-12-22T21:55:38.214Z,100288.75
2022-12-22T21:58:07.765Z,100295.69
2022-12-22T22:00:35.750Z,100287.06
2022-12-22T22:03:04.875Z,100292.25
2022-12-22T22:05:36.628Z,100297.41
2022-12-22T22:08:07.769Z,100299.09
2022-12-22T22:10:41.326Z,100293.94
2022-12-22T22:13:12.049Z,100297.41
2022-12-22T22:15:39.697Z,100288.81
2022-12-22T22:18:07.887Z,100291.44
2022-12-22T22:20:35.821Z,100281.91
2022-12-22T22:23:03.412Z,100300.94
2022-12-22T22:25:30.973Z,100302.66
2022-12-22T22:28:01.551Z,100304.47
2022-12-22T22:30:29.194Z,100309.66
2022-12-22T22:32:57.401Z,100310.44
2022-12-22T22:35:27.175Z,100318.22
2022-12-22T22:37:55.949Z,100307.03
2022-12-22T22:40:24.574Z,100313.06
2022-12-22T22:42:52.181Z,100304.41
2022-12-22T22:45:23.201Z,100311.34
2022-12-22T22:47:52.446Z,100310.50
2022-12-22T22:50:21.543Z,100311.34
2022-12-22T22:52:49.757Z,100314.78
2022-12-22T22:55:17.550Z,100312.19
2022-12-22T22:57:45.251Z,100314.78
2022-12-22T23:00:14.756Z,100313.94
2022-12-22T23:02:43.086Z,100319.13
2022-12-22T23:05:15.577Z,100315.72
2022-12-22T23:07:48.251Z,100318.31
2022-12-22T23:10:15.834Z,100308.75
2022-12-22T23:12:43.339Z,100318.22
2022-12-22T23:15:11.100Z,100302.66
2022-12-22T23:17:38.652Z,100309.59
2022-12-22T23:20:07.163Z,100302.75
2022-12-22T23:22:34.823Z,100298.34
2022-12-22T23:25:03.374Z,100298.31
2022-12-22T23:27:31.424Z,100292.25
2022-12-22T23:29:59.023Z,100296.53
2022-12-22T23:32:26.879Z,100305.19
2022-12-22T23:34:54.413Z,100315.59
2022-12-22T23:37:22.093Z,100315.59
2022-12-22T23:39:49.681Z,100319.97
2022-12-22T23:42:17.227Z,100323.41
2022-12-22T23:44:44.821Z,100323.44
2022-12-22T23:47:12.419Z,100327.78
2022-12-22T23:49:40.020Z,100329.56
2022-12-22T23:52:07.633Z,100329.56
2022-12-22T23:54:35.403Z,100331.31
2022-12-22T23:57:03.280Z,100334.78
2022-12-22T23:59:31.614Z,100337.41
